Wittman Regional Airport
KOSH : now visible

Airfield :











YOU CAN JOIN US ON...

 
LOGIN :

Register | Disclaimer

   EN    FR    IT 

 









Legend :    VFR   Marginal VFR   IFR   Intensive IFR   Very Intensive IFR
Visi :
Ceiling :
>= 8 km
>= 3000ft
5 to 8 km
1000 to 3000 ft
1500m to 5 km
500 to 1000 ft
800 to 1500m
200 to 500 ft
< 800m
< 200 ft
Symbols :   Thunderstorms  Fog  Heavy snow  Heavy precipitations  Wind > 20 kt






- Airport Elevation : 808 ft
- IATA code : OSH


KOSH - Wittman Regional

CURRENT METAR :
  • 041553Z 31010G17KT 10SM CLR 04/M02 A3015 RMK AO2 SLP220 T00441017

EXPIRED METARs :
  • 041516Z 33007KT 310V020 10SM SCT018 03/M01 A3015 RMK AO2 T00331011
  • 041453Z 31010KT 10SM BKN017 02/M02 A3015 RMK AO2 SLP218 T00221022 51015
  • 041420Z 31012G18KT 10SM OVC015 01/M02 A3014 RMK AO2 T00111022
  • 041353Z 31008G17KT 10SM OVC014 01/M03 A3014 RMK AO2 SLP214 T00061028

Expired Forecast.



MET'MAP, your aeronautical weather chart ! - Copyright ORBIFLY December 2007 - Disclaimer

ORBIFLY MET'MAP TEAM :

Programming & Development : Alexandra Zaïnal
Concept & original design : Baudouin d'Aumeries
Assistance for programming : Marc-Olivier Méhu
Technical & hardware support : Manuel Goepfert

Contact : metmap@orbifly.com




SOURCES & CREDITS :

   NOAA       Earth
Advisory